Time;durP1;ratioP1;P1;durP2;ratioP2;P2;SDS_P1;SDS_P2;PMS_P1;PMS_P2;Temp;Humidity;BMP_temperature;BMP_pressure;BME280_temperature;BME280_humidity;BME280_pressure;Samples;Min_cycle;Max_cycle;Signal;HPM_P1;HPM_P2
2022/12/24 00:00:57;;;;;;;;;;;;;;;3.19;90.36;97246.88;1726078;83;20105;-82
2022/12/24 00:03:24;;;;;;;;;;;;;;;3.20;90.39;97245.98;1726700;82;20350;-77
2022/12/24 00:05:50;;;;;;;;;;;;;;;3.14;90.02;97246.06;1728560;82;20097;-79
2022/12/24 00:08:17;;;;;;;;;;;;;;;3.09;90.02;97247.87;1739874;82;20511;-79
2022/12/24 00:10:44;;;;;;;;;;;;;;;3.06;90.16;97237.45;1740144;82;20091;-77
2022/12/24 00:13:10;;;;;;;;;;;;;;;3.03;90.22;97248.36;1743262;82;20326;-78
2022/12/24 00:15:36;;;;;;;;;;;;;;;3.02;90.32;97257.11;1736903;82;20109;-81
2022/12/24 00:18:03;;;;;;;;;;;;;;;3.00;90.43;97253.62;1741866;82;20123;-78
2022/12/24 00:20:30;;;;;;;;;;;;;;;3.00;90.48;97261.48;1740045;82;20093;-78
2022/12/24 00:22:56;;;;;;;;;;;;;;;3.01;90.53;97264.97;1741836;82;20342;-80
2022/12/24 00:25:23;;;;;;;;;;;;;;;2.97;90.33;97261.96;1738818;82;20105;-80
2022/12/24 00:27:49;;;;;;;;;;;;;;;2.96;90.39;97272.02;1739366;82;20333;-80
2022/12/24 00:30:16;;;;;;;;;;;;;;;2.95;90.40;97272.44;1743501;82;20126;-80
2022/12/24 00:32:42;;;;;;;;;;;;;;;2.93;90.26;97258.95;1741853;82;20121;-79
2022/12/24 00:35:08;;;;;;;;;;;;;;;2.91;90.45;97256.38;1740848;82;20121;-77
2022/12/24 00:37:35;;;;;;;;;;;;;;;2.88;90.38;97260.31;1740149;82;20134;-78
2022/12/24 00:40:01;;;;;;;;;;;;;;;2.88;90.37;97260.31;1742543;82;20130;-78
2022/12/24 00:42:27;;;;;;;;;;;;;;;2.87;90.37;97262.05;1740041;82;20108;-77
2022/12/24 00:44:53;;;;;;;;;;;;;;;2.86;90.42;97270.80;1739576;82;20089;-81
2022/12/24 00:47:19;;;;;;;;;;;;;;;2.86;90.53;97276.49;1726134;83;20101;-80
2022/12/24 00:49:45;;;;;;;;;;;;;;;2.83;90.36;97276.05;1726236;83;20085;-79
2022/12/24 00:52:12;;;;;;;;;;;;;;;2.80;90.13;97277.84;1725941;83;20125;-81
2022/12/24 00:54:38;;;;;;;;;;;;;;;2.80;90.54;97273.91;1726222;82;20329;-80
2022/12/24 00:57:04;;;;;;;;;;;;;;;2.80;90.80;97274.80;1726703;82;20113;-80
2022/12/24 00:59:30;;;;;;;;;;;;;;;2.80;90.67;97274.80;1732938;82;20090;-80
2022/12/24 01:01:57;;;;;;;;;;;;;;;2.80;90.78;97269.98;1739142;82;20129;-77
2022/12/24 01:07:08;;;;;;;;;;;;;;;2.79;90.66;97264.34;1736225;82;20337;-77
2022/12/24 01:09:35;;;;;;;;;;;;;;;2.81;91.04;97271.72;1726000;83;20085;-76
2022/12/24 01:12:01;;;;;;;;;;;;;;;2.79;90.99;97266.95;1726038;83;20116;-77
2022/12/24 01:14:27;;;;;;;;;;;;;;;2.74;91.21;97256.09;1726081;83;20141;-77
2022/12/24 01:16:54;;;;;;;;;;;;;;;2.73;91.04;97256.98;1730804;82;20093;-77
2022/12/24 01:19:20;;;;;;;;;;;;;;;2.71;91.09;97260.48;1726089;83;20089;-77
2022/12/24 01:21:46;;;;;;;;;;;;;;;2.70;91.47;97258.30;1725908;83;20276;-77
2022/12/24 01:24:16;;;;;;;;;;;;;;;2.68;91.37;97245.69;1731383;82;20350;-77
2022/12/24 01:26:42;;;;;;;;;;;;;;;2.70;91.20;97251.77;1725833;83;20128;-77
2022/12/24 01:29:09;;;;;;;;;;;;;;;2.68;91.24;97250.92;1732779;82;20148;-77
2022/12/24 01:31:35;;;;;;;;;;;;;;;2.64;91.58;97244.86;1753699;82;20163;-77
2022/12/24 01:34:01;;;;;;;;;;;;;;;2.58;91.19;97239.66;1747861;82;20134;-77
2022/12/24 01:36:27;;;;;;;;;;;;;;;2.55;91.29;97234.48;1736749;82;20125;-77
2022/12/24 01:38:53;;;;;;;;;;;;;;;2.55;91.39;97234.91;1725088;83;20104;-77
2022/12/24 01:44:27;;;;;;;;;;;;;;;2.54;91.99;97226.65;1726103;83;20117;-77
2022/12/24 01:46:57;;;;;;;;;;;;;;;2.52;91.91;97234.50;1728558;82;20101;-77
2022/12/24 01:49:24;;;;;;;;;;;;;;;2.46;91.93;97231.95;1724597;83;20089;-77
2022/12/24 01:51:57;;;;;;;;;;;;;;;2.44;91.86;97229.34;1726198;83;20116;-77
2022/12/24 01:54:30;;;;;;;;;;;;;;;2.44;92.04;97227.16;1738739;82;20090;-77
2022/12/24 01:57:00;;;;;;;;;;;;;;;2.45;92.30;97231.53;1755615;82;20403;-77
2022/12/24 01:59:26;;;;;;;;;;;;;;;2.44;92.36;97221.93;1754901;82;20138;-77
2022/12/24 02:01:53;;;;;;;;;;;;;;;2.45;92.02;97231.08;1755878;82;20075;-77
2022/12/24 02:04:23;;;;;;;;;;;;;;;2.43;92.25;97224.13;1753850;82;20329;-77
2022/12/24 02:06:50;;;;;;;;;;;;;;;2.45;92.44;97231.08;1755917;82;20095;-77
2022/12/24 02:09:17;;;;;;;;;;;;;;;2.47;92.35;97233.25;1733974;82;20125;-77
2022/12/24 02:11:43;;;;;;;;;;;;;;;2.45;92.68;97235.00;1726112;83;20089;-76
2022/12/24 02:14:11;;;;;;;;;;;;;;;2.46;93.06;97226.72;1726074;83;20299;-77
2022/12/24 02:16:50;;;;;;;;;;;;;;;2.44;92.73;97220.19;1741063;82;20143;-77
2022/12/24 02:19:46;;;;;;;;;;;;;;;2.40;92.65;97219.80;1744619;82;20102;-77
2022/12/24 02:22:22;;;;;;;;;;;;;;;2.37;93.08;97221.15;1755975;82;20123;-76
2022/12/24 02:25:25;;;;;;;;;;;;;;;2.35;92.58;97225.51;1755711;82;20091;-77
2022/12/24 02:28:15;;;;;;;;;;;;;;;2.32;92.45;97229.48;1753830;82;20111;-76
2022/12/24 02:30:47;;;;;;;;;;;;;;;2.31;92.60;97227.72;1755751;82;20398;-77
2022/12/24 02:33:38;;;;;;;;;;;;;;;2.27;92.64;97220.78;1756097;82;20099;-78
2022/12/24 02:36:14;;;;;;;;;;;;;;;2.23;92.84;97226.05;1756070;82;20090;-78
2022/12/24 02:38:44;;;;;;;;;;;;;;;2.21;92.57;97225.64;1755318;82;20126;-77
2022/12/24 02:41:14;;;;;;;;;;;;;;;2.16;93.15;97237.42;1735876;82;20283;-78
2022/12/24 02:43:43;;;;;;;;;;;;;;;2.14;92.48;97229.17;1726218;83;20097;-77
2022/12/24 02:46:13;;;;;;;;;;;;;;;2.10;92.58;97229.22;1726057;83;20121;-78
2022/12/24 02:48:41;;;;;;;;;;;;;;;2.11;92.43;97228.75;1725627;83;20101;-78
2022/12/24 02:51:09;;;;;;;;;;;;;;;2.08;92.37;97222.27;1726019;83;20133;-76
2022/12/24 02:53:36;;;;;;;;;;;;;;;2.07;92.90;97232.27;1753239;82;20153;-76
2022/12/24 02:56:18;;;;;;;;;;;;;;;2.07;92.93;97224.42;1764126;81;20098;-76
2022/12/24 02:59:16;;;;;;;;;;;;;;;2.06;93.24;97222.27;1770675;81;20121;-77
2022/12/24 03:02:18;;;;;;;;;;;;;;;2.09;93.05;97222.69;1691627;81;20165;-76
2022/12/24 03:04:55;;;;;;;;;;;;;;;2.11;93.31;97221.80;1757231;81;20092;-76
2022/12/24 03:07:40;;;;;;;;;;;;;;;2.17;93.30;97226.11;1740388;82;20107;-76
2022/12/24 03:10:22;;;;;;;;;;;;;;;2.16;92.90;97221.74;1740170;83;20087;-76
2022/12/24 03:12:55;;;;;;;;;;;;;;;2.18;92.94;97213.89;1750266;81;20117;-77
2022/12/24 03:15:28;;;;;;;;;;;;;;;2.20;93.13;97217.38;1769855;81;20133;-77
2022/12/24 03:17:55;;;;;;;;;;;;;;;2.21;93.00;97213.41;1754500;80;20126;-77
2022/12/24 03:20:25;;;;;;;;;;;;;;;2.26;92.92;97204.67;1725149;82;20132;-77
2022/12/24 03:22:51;;;;;;;;;;;;;;;2.30;93.08;97202.45;1725329;83;20133;-77
2022/12/24 03:25:19;;;;;;;;;;;;;;;2.32;92.96;97192.88;1740370;82;20384;-76
2022/12/24 03:27:46;;;;;;;;;;;;;;;2.28;92.90;97206.39;1740333;83;20095;-76
2022/12/24 03:30:13;;;;;;;;;;;;;;;2.32;93.42;97204.64;1801156;80;20106;-76
2022/12/24 03:32:39;;;;;;;;;;;;;;;2.37;93.13;97195.84;1802183;80;20138;-76
2022/12/24 03:35:06;;;;;;;;;;;;;;;2.44;93.36;97199.70;1787874;80;20172;-76
2022/12/24 03:37:32;;;;;;;;;;;;;;;2.51;93.25;97192.23;1770772;81;20116;-76
2022/12/24 03:39:59;;;;;;;;;;;;;;;2.55;92.90;97190.02;1770630;81;20082;-77
2022/12/24 03:42:25;;;;;;;;;;;;;;;2.57;93.19;97196.08;1770857;81;20112;-77
2022/12/24 03:44:51;;;;;;;;;;;;;;;2.61;92.89;97194.30;1770757;81;20120;-77
2022/12/24 03:47:17;;;;;;;;;;;;;;;2.60;92.45;97192.14;1757387;80;20337;-77
2022/12/24 03:49:44;;;;;;;;;;;;;;;2.61;92.84;97186.02;1740387;82;20096;-77
2022/12/24 03:52:10;;;;;;;;;;;;;;;2.66;92.83;97182.06;1740411;82;20080;-77
2022/12/24 03:54:36;;;;;;;;;;;;;;;2.72;93.30;97194.19;1740134;82;20143;-76
2022/12/24 03:57:04;;;;;;;;;;;;;;;2.76;92.89;97185.42;1745196;81;20477;-77
2022/12/24 03:59:30;;;;;;;;;;;;;;;2.77;92.67;97182.80;1762738;81;20105;-77
2022/12/24 04:01:56;;;;;;;;;;;;;;;2.77;92.81;97182.80;1763979;81;20130;-77
2022/12/24 04:04:23;;;;;;;;;;;;;;;2.81;92.83;97189.28;1734086;83;20089;-77
2022/12/24 04:06:49;;;;;;;;;;;;;;;2.77;92.77;97185.84;1733818;82;20345;-77
2022/12/24 04:09:15;;;;;;;;;;;;;;;2.84;93.49;97195.38;1733737;82;20116;-77
2022/12/24 04:11:41;;;;;;;;;;;;;;;2.87;93.47;97194.01;1733827;82;20117;-77
2022/12/24 04:14:08;;;;;;;;;;;;;;;2.87;92.98;97189.23;1733810;83;20353;-77
2022/12/24 04:16:34;;;;;;;;;;;;;;;2.86;93.23;97194.90;1746368;82;20088;-77
2022/12/24 04:19:00;;;;;;;;;;;;;;;2.84;93.09;97184.91;1746500;82;20477;-77
2022/12/24 04:21:26;;;;;;;;;;;;;;;2.84;93.01;97184.91;1746318;82;20134;-77
2022/12/24 04:23:53;;;;;;;;;;;;;;;2.80;92.69;97180.59;1761366;81;20310;-77
2022/12/24 04:26:19;;;;;;;;;;;;;;;2.79;92.69;97177.55;1763911;81;20139;-77
2022/12/24 04:28:45;;;;;;;;;;;;;;;2.74;92.61;97178.05;1733811;83;20174;-77
2022/12/24 04:31:14;;;;;;;;;;;;;;;2.69;92.63;97172.84;1733763;82;20167;-77
2022/12/24 04:33:40;;;;;;;;;;;;;;;2.66;92.64;97175.52;1733718;82;20120;-77
2022/12/24 04:36:09;;;;;;;;;;;;;;;2.65;92.98;97167.22;1733555;83;20128;-77
2022/12/24 04:38:35;;;;;;;;;;;;;;;2.58;92.92;97184.73;1746354;82;20095;-77
2022/12/24 04:41:04;;;;;;;;;;;;;;;2.55;92.90;97169.52;1746560;82;20111;-77
2022/12/24 04:43:31;;;;;;;;;;;;;;;2.55;92.92;97173.44;1746186;82;20379;-77
2022/12/24 04:46:16;;;;;;;;;;;;;;;2.52;92.79;97170.88;1746319;82;20106;-77
2022/12/24 04:48:44;;;;;;;;;;;;;;;2.48;92.58;97173.52;1768495;81;20314;-77
2022/12/24 04:51:11;;;;;;;;;;;;;;;2.43;93.02;97180.55;1762239;80;20102;-77
2022/12/24 04:53:38;;;;;;;;;;;;;;;2.41;93.07;97178.37;1732056;83;20100;-77
2022/12/24 04:56:07;;;;;;;;;;;;;;;2.38;93.32;97165.34;1725545;82;20077;-77
2022/12/24 04:58:33;;;;;;;;;;;;;;;2.38;93.07;97171.88;1695771;84;20116;-77
2022/12/24 05:01:04;;;;;;;;;;;;;;;2.37;93.00;97178.84;1728328;82;20097;-77
2022/12/24 05:03:31;;;;;;;;;;;;;;;2.35;93.38;97165.36;1713579;83;20121;-77
2022/12/24 05:06:02;;;;;;;;;;;;;;;2.36;93.52;97171.89;1725775;82;20392;-77
2022/12/24 05:08:29;;;;;;;;;;;;;;;2.36;93.17;97169.70;1711511;83;20353;-77
2022/12/24 05:10:57;;;;;;;;;;;;;;;2.33;93.24;97154.06;1711753;84;20156;-77
2022/12/24 05:13:24;;;;;;;;;;;;;;;2.33;93.45;97148.84;1746328;82;20097;-77
2022/12/24 05:15:50;;;;;;;;;;;;;;;2.32;93.15;97149.72;1726162;83;20488;-77
2022/12/24 05:18:16;;;;;;;;;;;;;;;2.32;93.33;97139.27;1726050;83;20121;-79
2022/12/24 05:20:43;;;;;;;;;;;;;;;2.33;92.85;97141.84;1726294;83;20097;-79
2022/12/24 05:26:22;;;;;;;;;;;;;;;2.36;93.12;97128.74;1726110;83;20097;-79
2022/12/24 05:28:50;;;;;;;;;;;;;;;2.42;93.70;97119.97;1726243;83;20089;-78
2022/12/24 05:31:18;;;;;;;;;;;;;;;2.44;93.86;97112.97;1726155;83;20134;-79
2022/12/24 05:33:44;;;;;;;;;;;;;;;2.48;93.17;97119.02;1752589;82;20083;-79
2022/12/24 05:36:10;;;;;;;;;;;;;;;2.48;93.11;97115.97;1756116;82;20339;-79
2022/12/24 05:38:37;;;;;;;;;;;;;;;2.52;93.64;97109.41;1756163;82;20095;-79
2022/12/24 05:41:04;;;;;;;;;;;;;;;2.55;93.29;97110.66;1755994;82;20083;-79
2022/12/24 05:43:31;;;;;;;;;;;;;;;2.54;93.19;97106.33;1732326;82;20108;-79
2022/12/24 05:45:59;;;;;;;;;;;;;;;2.54;93.10;97105.02;1726119;83;20093;-79
2022/12/24 05:48:25;;;;;;;;;;;;;;;2.53;93.42;97103.29;1725932;83;20081;-79
2022/12/24 05:50:53;;;;;;;;;;;;;;;2.60;94.02;97098.39;1726086;83;20148;-78
2022/12/24 05:53:19;;;;;;;;;;;;;;;2.66;93.67;97105.31;1725865;83;20105;-78
2022/12/24 05:55:45;;;;;;;;;;;;;;;2.65;93.47;97099.20;1749441;81;20391;-78
2022/12/24 05:58:12;;;;;;;;;;;;;;;2.69;93.71;97096.97;1756007;82;20095;-79
2022/12/24 06:00:38;;;;;;;;;;;;;;;2.70;93.47;97092.16;1755874;82;20127;-78
2022/12/24 06:03:05;;;;;;;;;;;;;;;2.74;93.64;97095.16;1756010;82;20083;-79
2022/12/24 06:05:31;;;;;;;;;;;;;;;2.73;93.68;97093.44;1756014;82;20126;-78
2022/12/24 06:07:57;;;;;;;;;;;;;;;2.70;93.77;97094.78;1733253;82;20101;-78
2022/12/24 06:10:23;;;;;;;;;;;;;;;2.68;93.51;97101.80;1726256;83;20109;-79
2022/12/24 06:12:49;;;;;;;;;;;;;;;2.67;93.44;97096.57;1726010;83;20129;-79
2022/12/24 06:15:16;;;;;;;;;;;;;;;2.63;93.45;97091.37;1726016;83;20156;-78
2022/12/24 06:17:42;;;;;;;;;;;;;;;2.58;93.62;97087.94;1725944;83;20098;-78
2022/12/24 06:20:09;;;;;;;;;;;;;;;2.52;93.48;97094.56;1753638;82;20139;-78
2022/12/24 06:22:35;;;;;;;;;;;;;;;2.49;93.43;97091.55;1756051;82;20075;-78
2022/12/24 06:25:01;;;;;;;;;;;;;;;2.50;93.76;97090.66;1756110;82;20118;-79
2022/12/24 06:27:27;;;;;;;;;;;;;;;2.50;93.62;97093.73;1753915;82;20324;-78
2022/12/24 06:29:53;;;;;;;;;;;;;;;2.47;93.49;97100.30;1755984;82;20095;-78
2022/12/24 06:32:20;;;;;;;;;;;;;;;2.45;93.38;97096.37;1751435;82;20095;-78
2022/12/24 06:34:46;;;;;;;;;;;;;;;2.43;93.35;97090.75;1756032;82;20126;-78
2022/12/24 06:37:17;;;;;;;;;;;;;;;2.41;93.56;97093.38;1745094;82;20105;-77
2022/12/24 06:39:40;;;;;;;;;;;;;;;2.40;93.29;97103.88;1725981;83;20105;-79
2022/12/24 06:42:06;;;;;;;;;;;;;;;2.37;93.60;97103.01;1730404;82;20132;-78
2022/12/24 06:44:32;;;;;;;;;;;;;;;2.40;93.44;97103.88;1726028;83;20122;-77
2022/12/24 06:46:58;;;;;;;;;;;;;;;2.40;93.25;97097.34;1726105;83;20100;-77
2022/12/24 06:49:24;;;;;;;;;;;;;;;2.38;93.64;97096.89;1727983;82;20093;-77
2022/12/24 06:51:51;;;;;;;;;;;;;;;2.40;93.94;97100.80;1744058;82;20126;-76
2022/12/24 06:54:17;;;;;;;;;;;;;;;2.44;93.81;97106.86;1755933;82;20320;-76
2022/12/24 06:56:43;;;;;;;;;;;;;;;2.44;93.88;97106.86;1743164;82;20137;-77
2022/12/24 06:59:09;;;;;;;;;;;;;;;2.40;93.91;97106.03;1755948;82;20087;-77
2022/12/24 07:01:36;;;;;;;;;;;;;;;2.38;93.87;97105.20;1751617;82;20114;-78
2022/12/24 07:04:02;;;;;;;;;;;;;;;2.35;93.94;97102.17;1755941;82;20339;-79
2022/12/24 07:06:29;;;;;;;;;;;;;;;2.36;93.91;97100.41;1742856;82;20185;-78
2022/12/24 07:08:56;;;;;;;;;;;;;;;2.38;94.64;97103.43;1744177;82;20411;-79
2022/12/24 07:11:25;;;;;;;;;;;;;;;2.40;94.23;97103.42;1739719;82;20105;-78
2022/12/24 07:13:54;;;;;;;;;;;;;;;2.43;93.96;97094.67;1725982;83;20101;-78
2022/12/24 07:16:20;;;;;;;;;;;;;;;2.45;93.91;97097.69;1726049;83;20337;-78
2022/12/24 07:18:46;;;;;;;;;;;;;;;2.46;93.87;97100.72;1727839;82;20207;-78
2022/12/24 07:21:13;;;;;;;;;;;;;;;2.46;94.15;97103.80;1730253;82;20366;-79
2022/12/24 07:23:39;;;;;;;;;;;;;;;2.44;94.28;97101.20;1726137;83;20089;-79
2022/12/24 07:26:06;;;;;;;;;;;;;;;2.47;94.09;97092.45;1725925;83;20873;-79
2022/12/24 07:28:33;;;;;;;;;;;;;;;2.49;94.05;97090.23;1731355;82;20105;-78
2022/12/24 07:30:59;;;;;;;;;;;;;;;2.56;93.87;97098.88;1751490;82;20146;-79
2022/12/24 07:33:25;;;;;;;;;;;;;;;2.61;94.53;97101.42;1755711;82;20857;-82
2022/12/24 07:36:04;;;;;;;;;;;;;;;2.66;94.83;97094.84;1755940;82;20083;-78
2022/12/24 07:38:30;;;;;;;;;;;;;;;2.73;94.94;97092.56;1755841;82;20087;-78
2022/12/24 07:40:57;;;;;;;;;;;;;;;2.81;94.87;97105.55;1738998;82;20097;-78
2022/12/24 07:43:24;;;;;;;;;;;;;;;2.81;94.36;97101.19;1726175;82;20125;-76
2022/12/24 07:45:56;;;;;;;;;;;;;;;2.83;94.40;97105.10;1752291;82;20130;-78
2022/12/24 07:48:24;;;;;;;;;;;;;;;2.86;94.07;97103.77;1742014;82;20133;-78
2022/12/24 07:50:51;;;;;;;;;;;;;;;2.88;93.91;97110.71;1739582;82;20089;-79
2022/12/24 07:53:17;;;;;;;;;;;;;;;2.93;94.00;97112.37;1741601;82;20417;-79
2022/12/24 07:55:44;;;;;;;;;;;;;;;2.99;94.48;97114.93;1743565;82;20075;-78
2022/12/24 07:58:10;;;;;;;;;;;;;;;3.06;94.62;97117.88;1755996;81;20116;-79
2022/12/24 08:00:37;;;;;;;;;;;;;;;3.12;94.38;97111.23;1753964;81;20121;-77
2022/12/24 08:03:03;;;;;;;;;;;;;;;3.18;94.62;97103.75;1757493;81;20335;-77
2022/12/24 08:05:35;;;;;;;;;;;;;;;3.26;94.25;97112.37;1758928;81;20093;-77
2022/12/24 08:08:01;;;;;;;;;;;;;;;3.32;94.61;97117.09;1769076;81;20112;-77
2022/12/24 08:10:28;;;;;;;;;;;;;;;3.39;94.39;97114.36;1756154;81;20095;-79
2022/12/24 08:12:54;;;;;;;;;;;;;;;3.42;94.73;97117.38;1740303;82;20140;-77
2022/12/24 08:15:20;;;;;;;;;;;;;;;3.41;94.47;97116.95;1756779;81;20190;-80
2022/12/24 08:17:46;;;;;;;;;;;;;;;3.42;94.27;97118.69;1752694;81;20143;-80
2022/12/24 08:20:16;;;;;;;;;;;;;;;3.36;94.24;97124.02;1748346;81;20104;-79
2022/12/24 08:22:42;;;;;;;;;;;;;;;3.36;94.20;97122.25;1747939;81;20419;-77
2022/12/24 08:25:09;;;;;;;;;;;;;;;3.34;94.21;97111.38;1740704;81;20268;-79
2022/12/24 08:27:35;;;;;;;;;;;;;;;3.28;94.04;97116.28;1746202;81;20194;-78
2022/12/24 08:30:03;;;;;;;;;;;;;;;3.23;93.64;97112.40;1741501;81;20100;-79
2022/12/24 08:32:30;;;;;;;;;;;;;;;3.15;93.85;97119.48;1757555;81;20103;-78
2022/12/24 08:34:57;;;;;;;;;;;;;;;3.11;93.75;97121.75;1753050;81;20137;-78
2022/12/24 08:37:24;;;;;;;;;;;;;;;3.08;93.70;97118.73;1754626;81;20133;-79
2022/12/24 08:39:51;;;;;;;;;;;;;;;3.10;94.04;97100.36;1756584;81;20118;-80
2022/12/24 08:42:18;;;;;;;;;;;;;;;3.13;93.84;97091.17;1766178;81;20089;-80
2022/12/24 08:44:44;;;;;;;;;;;;;;;3.14;93.74;97094.20;1765498;81;20082;-76
2022/12/24 08:47:10;;;;;;;;;;;;;;;3.11;93.92;97100.81;1770558;81;20109;-75
2022/12/24 08:49:38;;;;;;;;;;;;;;;3.13;93.91;97106.88;1770248;81;20097;-74
2022/12/24 08:52:05;;;;;;;;;;;;;;;3.11;94.18;97115.20;1769675;80;20306;-73
2022/12/24 08:54:31;;;;;;;;;;;;;;;3.11;94.17;97114.75;1770188;81;20148;-76
2022/12/24 08:56:57;;;;;;;;;;;;;;;3.17;94.31;97112.50;1770841;81;20101;-74
2022/12/24 08:59:26;;;;;;;;;;;;;;;3.19;94.23;97121.18;1760330;81;20153;-75
2022/12/24 09:01:52;;;;;;;;;;;;;;;3.20;94.10;97122.06;1729964;83;20109;-75
2022/12/24 09:04:19;;;;;;;;;;;;;;;3.21;94.26;97119.86;1749686;81;20148;-75
2022/12/24 09:06:45;;;;;;;;;;;;;;;3.23;94.43;97115.02;1770181;81;20127;-75
2022/12/24 09:09:11;;;;;;;;;;;;;;;3.28;94.46;97124.13;1733648;81;20134;-75
2022/12/24 09:11:38;;;;;;;;;;;;;;;3.33;94.42;97107.03;1731373;82;20163;-74
2022/12/24 09:14:04;;;;;;;;;;;;;;;3.34;94.26;97111.38;1733409;83;20149;-75
2022/12/24 09:16:30;;;;;;;;;;;;;;;3.39;94.39;97114.78;1733467;83;20362;-75
2022/12/24 09:18:57;;;;;;;;;;;;;;;3.39;94.50;97107.80;1732576;83;20132;-75
2022/12/24 09:21:24;;;;;;;;;;;;;;;3.36;94.15;97109.16;1717522;82;20383;-75
2022/12/24 09:23:50;;;;;;;;;;;;;;;3.37;94.02;97100.86;1746291;82;20096;-75
2022/12/24 09:26:21;;;;;;;;;;;;;;;3.43;94.13;97106.00;1745894;82;20115;-75
2022/12/24 09:28:48;;;;;;;;;;;;;;;3.49;94.12;97110.29;1746297;82;20107;-74
2022/12/24 09:31:15;;;;;;;;;;;;;;;3.54;94.70;97125.48;1745826;82;20122;-75
2022/12/24 09:33:43;;;;;;;;;;;;;;;3.53;93.98;97110.20;1763841;81;20116;-75
2022/12/24 09:36:10;;;;;;;;;;;;;;;3.56;94.26;97109.29;1770747;81;20095;-75
2022/12/24 09:38:36;;;;;;;;;;;;;;;3.62;94.14;97096.55;1746360;82;20114;-75
2022/12/24 09:41:16;;;;;;;;;;;;;;;3.68;93.98;97101.68;1746356;82;20084;-75
2022/12/24 09:43:47;;;;;;;;;;;;;;;3.70;94.20;97113.02;1746410;82;20363;-75
2022/12/24 09:46:29;;;;;;;;;;;;;;;3.74;94.19;97115.14;1772794;81;20085;-75
2022/12/24 09:48:59;;;;;;;;;;;;;;;3.77;94.40;97116.38;1761965;81;20098;-75
2022/12/24 09:51:31;;;;;;;;;;;;;;;3.81;94.32;97122.87;1747369;82;20107;-75
2022/12/24 09:54:16;;;;;;;;;;;;;;;3.86;94.48;97122.78;1761239;81;20094;-76
2022/12/24 09:56:46;;;;;;;;;;;;;;;3.91;94.55;97126.66;1719686;82;20118;-75
2022/12/24 09:59:21;;;;;;;;;;;;;;;3.96;94.12;97124.81;1707693;84;20096;-74
2022/12/24 10:01:50;;;;;;;;;;;;;;;3.97;94.27;97122.61;1707673;84;20127;-75
2022/12/24 10:04:19;;;;;;;;;;;;;;;4.02;94.19;97118.61;1707735;84;20135;-75
2022/12/24 10:06:55;;;;;;;;;;;;;;;4.04;93.95;97125.56;1712560;83;20263;-75
2022/12/24 10:09:51;;;;;;;;;;;;;;;4.07;93.70;97130.73;1724236;83;20167;-75
2022/12/24 10:12:42;;;;;;;;;;;;;;;4.14;93.72;97134.11;1707702;84;20091;-75
2022/12/24 10:15:27;;;;;;;;;;;;;;;4.22;93.47;97130.91;1707621;84;20387;-75
2022/12/24 10:18:17;;;;;;;;;;;;;;;4.27;93.25;97129.50;1706503;84;20356;-75
2022/12/24 10:20:52;;;;;;;;;;;;;;;4.31;93.15;97132.93;1707748;84;20099;-75
2022/12/24 10:23:33;;;;;;;;;;;;;;;4.34;93.11;97122.39;1706476;84;20363;-74
2022/12/24 10:26:26;;;;;;;;;;;;;;;4.40;93.22;97125.36;1707804;84;20164;-74
2022/12/24 10:28:58;;;;;;;;;;;;;;;4.47;93.21;97124.33;1707779;84;20347;-75
2022/12/24 10:31:26;;;;;;;;;;;;;;;4.60;93.68;97128.45;1721823;83;20081;-74
2022/12/24 10:34:08;;;;;;;;;;;;;;;4.72;93.94;97129.09;1707813;83;20081;-75
2022/12/24 10:36:34;;;;;;;;;;;;;;;4.83;93.73;97128.89;1736382;83;20101;-75
2022/12/24 10:39:00;;;;;;;;;;;;;;;4.99;94.36;97121.56;1737172;83;20105;-75
2022/12/24 10:41:27;;;;;;;;;;;;;;;5.13;94.19;97126.08;1737054;83;20133;-75
2022/12/24 10:43:54;;;;;;;;;;;;;;;5.18;93.31;97115.92;1731945;83;20089;-75
2022/12/24 10:46:27;;;;;;;;;;;;;;;5.31;93.51;97129.17;1737031;83;20326;-75
2022/12/24 10:49:08;;;;;;;;;;;;;;;5.65;94.77;97116.56;1735604;83;20085;-74
2022/12/24 10:51:50;;;;;;;;;;;;;;;6.42;94.54;97116.00;1736730;83;20093;-75
2022/12/24 10:54:22;;;;;;;;;;;;;;;7.29;92.26;97121.88;1736763;83;20361;-75
2022/12/24 10:56:51;;;;;;;;;;;;;;;7.98;90.01;97112.69;1712306;83;20397;-74
2022/12/24 10:59:44;;;;;;;;;;;;;;;8.15;90.52;97112.13;1722653;82;20370;-74
2022/12/24 11:02:33;;;;;;;;;;;;;;;8.11;86.14;97117.97;1722462;83;20126;-74
2022/12/24 11:05:01;;;;;;;;;;;;;;;8.22;86.18;97122.02;1722491;83;20126;-75
2022/12/24 11:07:30;;;;;;;;;;;;;;;7.92;86.72;97130.89;1707115;83;20117;-75
2022/12/24 11:10:00;;;;;;;;;;;;;;;7.83;87.36;97132.51;1693536;85;20195;-75
2022/12/24 11:12:32;;;;;;;;;;;;;;;7.63;87.29;97133.57;1693350;85;20487;-75
2022/12/24 11:15:07;;;;;;;;;;;;;;;7.60;87.99;97138.09;1693738;85;20132;-75
2022/12/24 11:17:33;;;;;;;;;;;;;;;7.44;87.40;97139.01;1693661;85;20145;-75
2022/12/24 11:20:02;;;;;;;;;;;;;;;7.33;87.88;97131.42;1715030;83;20198;-75
2022/12/24 11:22:31;;;;;;;;;;;;;;;7.25;88.16;97141.76;1722407;83;20203;-75
2022/12/24 11:25:01;;;;;;;;;;;;;;;7.22;88.37;97137.01;1722339;83;20178;-75
2022/12/24 11:27:46;;;;;;;;;;;;;;;7.11;88.19;97150.52;1722495;83;20410;-75
2022/12/24 11:30:18;;;;;;;;;;;;;;;7.00;88.43;97145.56;1720378;83;20145;-75
2022/12/24 11:32:47;;;;;;;;;;;;;;;6.89;88.30;97141.06;1693762;85;20401;-75
2022/12/24 11:35:22;;;;;;;;;;;;;;;6.82;88.55;97146.48;1693152;85;20178;-75
2022/12/24 11:38:01;;;;;;;;;;;;;;;6.78;88.81;97148.81;1693606;85;20250;-75
2022/12/24 11:40:37;;;;;;;;;;;;;;;6.71;89.08;97156.02;1692575;84;20168;-75
2022/12/24 11:43:05;;;;;;;;;;;;;;;6.67;89.31;97157.45;1705438;83;20118;-75
2022/12/24 11:45:33;;;;;;;;;;;;;;;6.66;89.17;97158.36;1722242;83;20165;-75
2022/12/24 11:48:00;;;;;;;;;;;;;;;6.58;89.09;97158.57;1722344;83;20161;-75
2022/12/24 11:50:32;;;;;;;;;;;;;;;6.52;89.53;97165.32;1722411;83;20396;-75
2022/12/24 11:53:05;;;;;;;;;;;;;;;6.46;89.26;97163.70;1722378;83;20142;-75
2022/12/24 11:55:46;;;;;;;;;;;;;;;6.40;89.46;97160.77;1702823;83;20183;-75
2022/12/24 11:58:19;;;;;;;;;;;;;;;6.37;89.70;97175.79;1693448;84;20120;-75
2022/12/24 12:00:47;;;;;;;;;;;;;;;6.33;89.75;97181.59;1693121;85;20848;-75
2022/12/24 12:03:41;;;;;;;;;;;;;;;6.30;89.90;97178.59;1705295;83;20126;-75
2022/12/24 12:06:30;;;;;;;;;;;;;;;6.27;89.93;97177.81;1722299;83;20161;-76
2022/12/24 12:09:00;;;;;;;;;;;;;;;6.23;90.01;97182.26;1722466;83;20406;-76
2022/12/24 12:11:27;;;;;;;;;;;;;;;6.18;90.18;97176.25;1722467;83;20385;-76
2022/12/24 12:13:56;;;;;;;;;;;;;;;6.15;90.61;97175.03;1702874;83;20161;-75
2022/12/24 12:16:59;;;;;;;;;;;;;;;6.13;90.58;97175.06;1693546;85;20148;-76
2022/12/24 12:19:05;;;;;;;;;;;;;;;6.11;90.76;97181.27;1689953;85;20377;-75
2022/12/24 12:21:34;;;;;;;;;;;;;;;6.10;90.98;97165.92;1693720;85;20159;-75
2022/12/24 12:24:04;;;;;;;;;;;;;;;6.12;91.09;97181.23;1693502;83;20128;-75
2022/12/24 12:26:32;;;;;;;;;;;;;;;6.13;91.03;97189.53;1718742;83;20161;-75
2022/12/24 12:29:01;;;;;;;;;;;;;;;6.15;91.22;97195.61;1693676;85;20116;-75
2022/12/24 12:31:43;;;;;;;;;;;;;;;6.15;91.29;97182.45;1669843;85;20152;-75
2022/12/24 12:34:38;;;;;;;;;;;;;;;6.12;90.97;97183.87;1688115;85;20155;-75
2022/12/24 12:37:33;;;;;;;;;;;;;;;6.12;91.26;97192.20;1695702;83;20117;-75
2022/12/24 12:40:00;;;;;;;;;;;;;;;6.15;91.02;97195.61;1669769;85;20156;-75
2022/12/24 12:42:30;;;;;;;;;;;;;;;6.17;91.19;97203.03;1693511;85;20108;-75
2022/12/24 12:45:26;;;;;;;;;;;;;;;6.15;91.13;97202.66;1693564;85;20143;-75
2022/12/24 12:48:08;;;;;;;;;;;;;;;6.11;91.05;97209.77;1693494;85;20144;-75
2022/12/24 12:50:38;;;;;;;;;;;;;;;6.06;90.87;97210.30;1716804;83;20142;-75
2022/12/24 12:53:26;;;;;;;;;;;;;;;6.01;90.88;97220.03;1722168;83;20118;-75
2022/12/24 12:56:12;;;;;;;;;;;;;;;5.95;90.62;97227.17;1722295;83;20133;-75
2022/12/24 12:58:42;;;;;;;;;;;;;;;5.89;90.69;97233.89;1729356;82;20129;-75
2022/12/24 13:01:15;;;;;;;;;;;;;;;5.84;90.90;97223.94;1732881;83;20436;-75
2022/12/24 13:04:18;;;;;;;;;;;;;;;5.81;91.06;97239.77;1706983;84;20119;-75
2022/12/24 13:07:23;;;;;;;;;;;;;;;5.76;90.79;97244.27;1707639;84;20123;-74
2022/12/24 13:09:52;;;;;;;;;;;;;;;5.71;91.07;97241.76;1707657;84;20111;-76
2022/12/24 13:12:40;;;;;;;;;;;;;;;5.68;91.15;97247.07;1710618;83;20198;-75
2022/12/24 13:15:25;;;;;;;;;;;;;;;5.65;91.12;97252.42;1725816;83;20129;-75
2022/12/24 13:18:07;;;;;;;;;;;;;;;5.62;91.09;97255.10;1736978;83;20144;-74
2022/12/24 13:20:37;;;;;;;;;;;;;;;5.59;91.05;97261.30;1736912;83;20120;-75
2022/12/24 13:23:10;;;;;;;;;;;;;;;5.57;91.14;97267.05;1736086;83;20125;-75